sensor_id;sensor_type;location;lat;lon;timestamp;pressure;altitude;pressure_sealevel;temperature;humidity
40276;BME280;25990;52.768;16.930;2024-01-30T00:01:32;103224.72;;;0.50;78.65
40276;BME280;25990;52.768;16.930;2024-01-30T00:03:55;103237.48;;;0.50;78.87
40276;BME280;25990;52.768;16.930;2024-01-30T00:06:20;103233.64;;;0.47;78.91
40276;BME280;25990;52.768;16.930;2024-01-30T00:08:39;103227.80;;;0.48;78.65
40276;BME280;25990;52.768;16.930;2024-01-30T00:11:02;103221.58;;;0.46;78.71
40276;BME280;25990;52.768;16.930;2024-01-30T00:13:24;103219.57;;;0.43;78.98
40276;BME280;25990;52.768;16.930;2024-01-30T00:15:46;103223.76;;;0.43;78.48
40276;BME280;25990;52.768;16.930;2024-01-30T00:18:09;103231.58;;;0.44;78.29
40276;BME280;25990;52.768;16.930;2024-01-30T00:20:31;103229.76;;;0.43;77.94
40276;BME280;25990;52.768;16.930;2024-01-30T00:22:53;103234.88;;;0.43;78.19
40276;BME280;25990;52.768;16.930;2024-01-30T00:25:16;103235.78;;;0.44;78.18
40276;BME280;25990;52.768;16.930;2024-01-30T00:27:38;103239.97;;;0.43;78.39
40276;BME280;25990;52.768;16.930;2024-01-30T00:30:01;103236.89;;;0.46;78.15
40276;BME280;25990;52.768;16.930;2024-01-30T00:32:23;103241.30;;;0.47;78.05
40276;BME280;25990;52.768;16.930;2024-01-30T00:34:45;103236.20;;;0.47;77.52
40276;BME280;25990;52.768;16.930;2024-01-30T00:37:08;103237.09;;;0.47;77.51
40276;BME280;25990;52.768;16.930;2024-01-30T00:39:30;103230.68;;;0.44;77.61
40276;BME280;25990;52.768;16.930;2024-01-30T00:41:52;103227.75;;;0.40;77.63
40276;BME280;25990;52.768;16.930;2024-01-30T00:44:15;103232.84;;;0.40;77.83
40276;BME280;25990;52.768;16.930;2024-01-30T00:46:37;103223.87;;;0.37;77.63
40276;BME280;25990;52.768;16.930;2024-01-30T00:48:59;103224.93;;;0.32;78.13
40276;BME280;25990;52.768;16.930;2024-01-30T00:51:22;103222.17;;;0.30;77.70
40276;BME280;25990;52.768;16.930;2024-01-30T00:53:45;103222.91;;;0.29;77.64
40276;BME280;25990;52.768;16.930;2024-01-30T00:56:07;103223.42;;;0.27;78.13
40276;BME280;25990;52.768;16.930;2024-01-30T00:58:29;103220.66;;;0.25;78.06
40276;BME280;25990;52.768;16.930;2024-01-30T01:00:51;103214.45;;;0.23;78.22
40276;BME280;25990;52.768;16.930;2024-01-30T01:03:13;103219.16;;;0.20;78.64
40276;BME280;25990;52.768;16.930;2024-01-30T01:05:36;103213.13;;;0.19;78.34
40276;BME280;25990;52.768;16.930;2024-01-30T01:07:59;103217.32;;;0.19;78.31
40276;BME280;25990;52.768;16.930;2024-01-30T01:10:21;103224.98;;;0.19;78.62
40276;BME280;25990;52.768;16.930;2024-01-30T01:12:43;103216.41;;;0.18;78.22
40276;BME280;25990;52.768;16.930;2024-01-30T01:15:06;103224.98;;;0.19;78.10
40276;BME280;25990;52.768;16.930;2024-01-30T01:17:28;103220.40;;;0.16;78.33
40276;BME280;25990;52.768;16.930;2024-01-30T01:19:50;103222.94;;;0.16;78.83
40276;BME280;25990;52.768;16.930;2024-01-30T01:22:12;103222.63;;;0.20;78.45
40276;BME280;25990;52.768;16.930;2024-01-30T01:24:36;103223.42;;;0.27;78.29
40276;BME280;25990;52.768;16.930;2024-01-30T01:26:58;103227.48;;;0.32;78.01
40276;BME280;25990;52.768;16.930;2024-01-30T01:29:19;103227.69;;;0.33;77.65
40276;BME280;25990;52.768;16.930;2024-01-30T01:31:42;103227.69;;;0.33;78.18
40276;BME280;25990;52.768;16.930;2024-01-30T01:34:04;103231.31;;;0.35;77.89
40276;BME280;25990;52.768;16.930;2024-01-30T01:36:26;103227.86;;;0.35;77.65
40276;BME280;25990;52.768;16.930;2024-01-30T01:38:49;103232.27;;;0.36;77.08
40276;BME280;25990;52.768;16.930;2024-01-30T01:41:11;103230.62;;;0.36;76.92
40276;BME280;25990;52.768;16.930;2024-01-30T01:43:33;103225.13;;;0.33;77.18
40276;BME280;25990;52.768;16.930;2024-01-30T01:45:59;103227.69;;;0.33;77.02
40276;BME280;25990;52.768;16.930;2024-01-30T01:48:18;103225.13;;;0.33;77.13
40276;BME280;25990;52.768;16.930;2024-01-30T01:50:41;103226.56;;;0.31;77.09
40276;BME280;25990;52.768;16.930;2024-01-30T01:53:03;103224.52;;;0.29;77.04
40276;BME280;25990;52.768;16.930;2024-01-30T01:55:25;103218.49;;;0.28;76.97
40276;BME280;25990;52.768;16.930;2024-01-30T01:57:48;103220.14;;;0.28;76.71
40276;BME280;25990;52.768;16.930;2024-01-30T02:00:11;103219.23;;;0.27;76.82
40276;BME280;25990;52.768;16.930;2024-01-30T02:02:35;103224.87;;;0.25;77.39
40276;BME280;25990;52.768;16.930;2024-01-30T02:04:55;103223.22;;;0.25;77.18
40276;BME280;25990;52.768;16.930;2024-01-30T02:07:17;103217.70;;;0.22;77.43
40276;BME280;25990;52.768;16.930;2024-01-30T02:09:40;103216.09;;;0.23;77.55
40276;BME280;25990;52.768;16.930;2024-01-30T02:12:02;103219.55;;;0.23;76.90
40276;BME280;25990;52.768;16.930;2024-01-30T02:14:24;103214.06;;;0.20;77.47
40276;BME280;25990;52.768;16.930;2024-01-30T02:16:46;103219.87;;;0.19;77.23
40276;BME280;25990;52.768;16.930;2024-01-30T02:19:09;103212.22;;;0.19;77.34
40276;BME280;25990;52.768;16.930;2024-01-30T02:21:31;103209.66;;;0.19;77.30
40276;BME280;25990;52.768;16.930;2024-01-30T02:23:54;103212.95;;;0.18;77.37
40276;BME280;25990;52.768;16.930;2024-01-30T02:26:16;103213.65;;;0.17;76.98
40276;BME280;25990;52.768;16.930;2024-01-30T02:28:38;103208.16;;;0.14;77.32
40276;BME280;25990;52.768;16.930;2024-01-30T02:31:00;103211.95;;;0.10;77.05
40276;BME280;25990;52.768;16.930;2024-01-30T02:33:23;103209.91;;;0.08;77.33
40276;BME280;25990;52.768;16.930;2024-01-30T02:35:45;103209.01;;;0.07;77.38
40276;BME280;25990;52.768;16.930;2024-01-30T02:38:07;103210.23;;;0.04;77.48
40276;BME280;25990;52.768;16.930;2024-01-30T02:40:30;103207.30;;;0.01;77.49
40276;BME280;25990;52.768;16.930;2024-01-30T02:42:52;103209.85;;;0.01;77.36
40276;BME280;25990;52.768;16.930;2024-01-30T02:45:15;103204.53;;;-0.01;77.37
40276;BME280;25990;52.768;16.930;2024-01-30T02:47:37;103196.89;;;-0.01;76.86
40276;BME280;25990;52.768;16.930;2024-01-30T02:49:59;103200.66;;;-0.05;76.89
40276;BME280;25990;52.768;16.930;2024-01-30T02:52:22;103197.94;;;-0.06;76.85
40276;BME280;25990;52.768;16.930;2024-01-30T02:54:44;103206.12;;;-0.09;77.90
40276;BME280;25990;52.768;16.930;2024-01-30T02:57:06;103187.85;;;-0.12;78.05
40276;BME280;25990;52.768;16.930;2024-01-30T02:59:29;103201.33;;;-0.13;78.49
40276;BME280;25990;52.768;16.930;2024-01-30T03:01:51;103186.94;;;-0.12;78.91
40276;BME280;25990;52.768;16.930;2024-01-30T03:04:13;103186.41;;;-0.10;78.48
40276;BME280;25990;52.768;16.930;2024-01-30T03:06:36;103190.99;;;-0.07;78.45
40276;BME280;25990;52.768;16.930;2024-01-30T03:08:58;103181.32;;;-0.10;78.61
40276;BME280;25990;52.768;16.930;2024-01-30T03:11:21;103189.34;;;-0.07;78.59
40276;BME280;25990;52.768;16.930;2024-01-30T03:13:43;103191.42;;;-0.04;78.34
40276;BME280;25990;52.768;16.930;2024-01-30T03:16:06;103200.17;;;-0.02;78.49
40276;BME280;25990;52.768;16.930;2024-01-30T03:18:27;103200.45;;;0.07;77.83
40276;BME280;25990;52.768;16.930;2024-01-30T03:20:50;103193.18;;;0.10;78.02
40276;BME280;25990;52.768;16.930;2024-01-30T03:23:12;103190.84;;;0.11;78.00
40276;BME280;25990;52.768;16.930;2024-01-30T03:25:34;103200.69;;;0.15;77.44
40276;BME280;25990;52.768;16.930;2024-01-30T03:27:57;103190.91;;;0.18;77.61
40276;BME280;25990;52.768;16.930;2024-01-30T03:30:19;103189.48;;;0.20;77.25
40276;BME280;25990;52.768;16.930;2024-01-30T03:32:42;103189.48;;;0.20;77.65
40276;BME280;25990;52.768;16.930;2024-01-30T03:35:04;103186.18;;;0.22;77.56
40276;BME280;25990;52.768;16.930;2024-01-30T03:37:26;103188.21;;;0.24;77.63
40276;BME280;25990;52.768;16.930;2024-01-30T03:39:49;103193.90;;;0.29;77.13
40276;BME280;25990;52.768;16.930;2024-01-30T03:42:11;103187.18;;;0.29;77.53
40276;BME280;25990;52.768;16.930;2024-01-30T03:44:33;103179.92;;;0.32;77.43
40276;BME280;25990;52.768;16.930;2024-01-30T03:46:56;103182.14;;;0.36;77.35
40276;BME280;25990;52.768;16.930;2024-01-30T03:49:18;103187.63;;;0.39;77.40
40276;BME280;25990;52.768;16.930;2024-01-30T03:51:40;103188.56;;;0.40;77.44
40276;BME280;25990;52.768;16.930;2024-01-30T03:54:03;103182.94;;;0.43;77.46
40276;BME280;25990;52.768;16.930;2024-01-30T03:56:25;103178.37;;;0.40;77.54
40276;BME280;25990;52.768;16.930;2024-01-30T03:58:47;103190.76;;;0.44;77.50
40276;BME280;25990;52.768;16.930;2024-01-30T04:01:14;103184.75;;;0.44;77.64
40276;BME280;25990;52.768;16.930;2024-01-30T04:03:32;103188.63;;;0.47;77.46
40276;BME280;25990;52.768;16.930;2024-01-30T04:05:54;103180.43;;;0.50;77.39
40276;BME280;25990;52.768;16.930;2024-01-30T04:08:17;103184.80;;;0.51;77.20
40276;BME280;25990;52.768;16.930;2024-01-30T04:10:39;103181.34;;;0.50;77.23
40276;BME280;25990;52.768;16.930;2024-01-30T04:13:02;103173.48;;;0.49;77.33
40276;BME280;25990;52.768;16.930;2024-01-30T04:15:24;103187.37;;;0.51;77.19
40276;BME280;25990;52.768;16.930;2024-01-30T04:17:46;103191.02;;;0.53;77.03
40276;BME280;25990;52.768;16.930;2024-01-30T04:20:13;103193.23;;;0.57;76.97
40276;BME280;25990;52.768;16.930;2024-01-30T04:22:31;103192.55;;;0.58;76.91
40276;BME280;25990;52.768;16.930;2024-01-30T04:24:53;103194.57;;;0.60;76.91
40276;BME280;25990;52.768;16.930;2024-01-30T04:27:16;103187.12;;;0.62;76.69
40276;BME280;25990;52.768;16.930;2024-01-30T04:29:38;103194.03;;;0.63;76.70
40276;BME280;25990;52.768;16.930;2024-01-30T04:32:00;103186.59;;;0.65;76.45
40276;BME280;25990;52.768;16.930;2024-01-30T04:34:23;103188.93;;;0.63;76.40
40276;BME280;25990;52.768;16.930;2024-01-30T04:36:45;103191.48;;;0.63;76.73
40276;BME280;25990;52.768;16.930;2024-01-30T04:39:07;103191.28;;;0.61;76.78
40276;BME280;25990;52.768;16.930;2024-01-30T04:41:30;103189.83;;;0.64;76.76
40276;BME280;25990;52.768;16.930;2024-01-30T04:43:52;103185.14;;;0.67;76.67
40276;BME280;25990;52.768;16.930;2024-01-30T04:46:14;103189.30;;;0.66;76.35
40276;BME280;25990;52.768;16.930;2024-01-30T04:48:37;103186.76;;;0.66;76.07
40276;BME280;25990;52.768;16.930;2024-01-30T04:50:59;103185.14;;;0.67;76.38
40276;BME280;25990;52.768;16.930;2024-01-30T04:53:21;103186.76;;;0.66;76.15
40276;BME280;25990;52.768;16.930;2024-01-30T04:55:44;103191.48;;;0.63;76.44
40276;BME280;25990;52.768;16.930;2024-01-30T04:58:06;103201.37;;;0.67;76.56
40276;BME280;25990;52.768;16.930;2024-01-30T05:00:28;103202.28;;;0.68;76.46
40276;BME280;25990;52.768;16.930;2024-01-30T05:02:51;103198.07;;;0.68;76.45
40276;BME280;25990;52.768;16.930;2024-01-30T05:05:13;103205.03;;;0.69;76.39
40276;BME280;25990;52.768;16.930;2024-01-30T05:07:36;103207.25;;;0.73;76.25
40276;BME280;25990;52.768;16.930;2024-01-30T05:09:58;103203.97;;;0.74;76.13
40276;BME280;25990;52.768;16.930;2024-01-30T05:12:20;103203.97;;;0.74;76.15
40276;BME280;25990;52.768;16.930;2024-01-30T05:14:43;103207.25;;;0.73;76.24
40276;BME280;25990;52.768;16.930;2024-01-30T05:17:05;103200.30;;;0.72;76.31
40276;BME280;25990;52.768;16.930;2024-01-30T05:19:27;103206.14;;;0.71;76.33
40276;BME280;25990;52.768;16.930;2024-01-30T05:21:50;103201.74;;;0.70;76.49
40276;BME280;25990;52.768;16.930;2024-01-30T05:24:12;103204.51;;;0.72;76.43
40276;BME280;25990;52.768;16.930;2024-01-30T05:26:34;103207.38;;;0.68;76.48
40276;BME280;25990;52.768;16.930;2024-01-30T05:28:57;103213.41;;;0.68;76.80
40276;BME280;25990;52.768;16.930;2024-01-30T05:31:19;103209.81;;;0.73;76.56
40276;BME280;25990;52.768;16.930;2024-01-30T05:33:41;103210.51;;;0.72;76.31
40276;BME280;25990;52.768;16.930;2024-01-30T05:36:04;103203.59;;;0.71;76.45
40276;BME280;25990;52.768;16.930;2024-01-30T05:38:26;103203.38;;;0.70;76.53
40276;BME280;25990;52.768;16.930;2024-01-30T05:40:48;103207.25;;;0.73;76.33
40276;BME280;25990;52.768;16.930;2024-01-30T05:43:11;103203.06;;;0.74;76.08
40276;BME280;25990;52.768;16.930;2024-01-30T05:45:34;103200.09;;;0.71;76.17
40276;BME280;25990;52.768;16.930;2024-01-30T05:47:55;103199.52;;;0.66;76.20
40276;BME280;25990;52.768;16.930;2024-01-30T05:50:18;103196.79;;;0.65;76.68
40276;BME280;25990;52.768;16.930;2024-01-30T05:52:40;103196.27;;;0.67;76.55
40276;BME280;25990;52.768;16.930;2024-01-30T05:55:03;103201.37;;;0.67;76.62
40276;BME280;25990;52.768;16.930;2024-01-30T05:57:25;103204.51;;;0.72;76.70
40276;BME280;25990;52.768;16.930;2024-01-30T05:59:47;103201.37;;;0.67;76.65
40276;BME280;25990;52.768;16.930;2024-01-30T06:02:13;103197.17;;;0.68;76.66
40276;BME280;25990;52.768;16.930;2024-01-30T06:04:32;103192.98;;;0.68;76.66
40276;BME280;25990;52.768;16.930;2024-01-30T06:06:54;103190.25;;;0.67;76.74
40276;BME280;25990;52.768;16.930;2024-01-30T06:09:17;103196.96;;;0.66;76.90
40276;BME280;25990;52.768;16.930;2024-01-30T06:11:39;103193.51;;;0.66;76.77
40276;BME280;25990;52.768;16.930;2024-01-30T06:14:01;103197.17;;;0.68;76.74
40276;BME280;25990;52.768;16.930;2024-01-30T06:16:24;103192.84;;;0.74;76.95
40276;BME280;25990;52.768;16.930;2024-01-30T06:18:46;103203.26;;;0.75;76.46
40276;BME280;25990;52.768;16.930;2024-01-30T06:21:08;103199.23;;;0.77;76.35
40276;BME280;25990;52.768;16.930;2024-01-30T06:23:31;103191.77;;;0.79;76.48
40276;BME280;25990;52.768;16.930;2024-01-30T06:25:53;103201.99;;;0.79;76.38
40276;BME280;25990;52.768;16.930;2024-01-30T06:28:15;103192.69;;;0.79;76.15
40276;BME280;25990;52.768;16.930;2024-01-30T06:30:38;103198.20;;;0.82;76.48
40276;BME280;25990;52.768;16.930;2024-01-30T06:33:00;103189.63;;;0.82;76.15
40276;BME280;25990;52.768;16.930;2024-01-30T06:35:22;103186.55;;;0.85;76.30
40276;BME280;25990;52.768;16.930;2024-01-30T06:37:45;103195.45;;;0.81;76.39
40276;BME280;25990;52.768;16.930;2024-01-30T06:40:08;103190.93;;;0.86;76.27
40276;BME280;25990;52.768;16.930;2024-01-30T06:42:30;103205.54;;;0.87;75.97
40276;BME280;25990;52.768;16.930;2024-01-30T06:44:52;103193.14;;;0.90;76.17
40276;BME280;25990;52.768;16.930;2024-01-30T06:47:14;103194.25;;;0.92;75.92
40276;BME280;25990;52.768;16.930;2024-01-30T06:49:37;103202.49;;;0.96;75.92
40276;BME280;25990;52.768;16.930;2024-01-30T06:51:59;103198.29;;;0.97;75.52
40276;BME280;25990;52.768;16.930;2024-01-30T06:54:21;103195.40;;;1.01;75.67
40276;BME280;25990;52.768;16.930;2024-01-30T06:56:43;103195.40;;;1.01;75.40
40276;BME280;25990;52.768;16.930;2024-01-30T06:59:06;103195.40;;;1.01;75.45
40276;BME280;25990;52.768;16.930;2024-01-30T07:01:29;103192.14;;;1.02;75.14
40276;BME280;25990;52.768;16.930;2024-01-30T07:03:51;103185.06;;;1.07;75.13
40276;BME280;25990;52.768;16.930;2024-01-30T07:06:13;103193.66;;;1.14;75.03
40276;BME280;25990;52.768;16.930;2024-01-30T07:08:35;103190.23;;;1.21;75.02
40276;BME280;25990;52.768;16.930;2024-01-30T07:10:58;103193.93;;;1.30;74.49
40276;BME280;25990;52.768;16.930;2024-01-30T07:13:20;103200.37;;;1.41;74.42
40276;BME280;25990;52.768;16.930;2024-01-30T07:15:43;103192.03;;;1.49;73.80
40276;BME280;25990;52.768;16.930;2024-01-30T07:18:05;103199.52;;;1.55;73.58
40276;BME280;25990;52.768;16.930;2024-01-30T07:20:27;103196.25;;;1.56;73.73
40276;BME280;25990;52.768;16.930;2024-01-30T07:22:49;103203.73;;;1.54;73.44
40276;BME280;25990;52.768;16.930;2024-01-30T07:25:12;103200.46;;;1.55;73.33
40276;BME280;25990;52.768;16.930;2024-01-30T07:27:34;103198.28;;;1.58;73.75
40276;BME280;25990;52.768;16.930;2024-01-30T07:29:56;103204.84;;;1.56;73.73
40276;BME280;25990;52.768;16.930;2024-01-30T07:32:19;103205.59;;;1.62;73.98
40276;BME280;25990;52.768;16.930;2024-01-30T07:34:41;103196.47;;;1.64;73.31
40276;BME280;25990;52.768;16.930;2024-01-30T07:37:03;103198.70;;;1.69;73.10
40276;BME280;25990;52.768;16.930;2024-01-30T07:39:26;103200.50;;;1.70;73.03
40276;BME280;25990;52.768;16.930;2024-01-30T07:41:48;103196.16;;;1.76;73.10
40276;BME280;25990;52.768;16.930;2024-01-30T07:44:10;103191.39;;;1.79;72.50
40276;BME280;25990;52.768;16.930;2024-01-30T07:46:33;103195.97;;;1.81;72.62
40276;BME280;25990;52.768;16.930;2024-01-30T07:48:58;103197.63;;;1.88;72.92
40276;BME280;25990;52.768;16.930;2024-01-30T07:51:17;103199.30;;;1.95;72.77
40276;BME280;25990;52.768;16.930;2024-01-30T07:53:40;103201.35;;;2.04;72.72
40276;BME280;25990;52.768;16.930;2024-01-30T07:56:02;103207.23;;;2.11;72.46
40276;BME280;25990;52.768;16.930;2024-01-30T07:58:25;103199.91;;;2.21;72.31
40276;BME280;25990;52.768;16.930;2024-01-30T08:00:47;103203.02;;;2.25;72.13
40276;BME280;25990;52.768;16.930;2024-01-30T08:03:09;103194.83;;;2.42;71.47
40276;BME280;25990;52.768;16.930;2024-01-30T08:05:32;103207.07;;;2.52;70.90
40276;BME280;25990;52.768;16.930;2024-01-30T08:07:54;103198.87;;;2.62;70.57
40276;BME280;25990;52.768;16.930;2024-01-30T08:10:17;103201.77;;;2.65;70.18
40276;BME280;25990;52.768;16.930;2024-01-30T08:12:39;103209.85;;;2.68;70.16
40276;BME280;25990;52.768;16.930;2024-01-30T08:15:01;103198.67;;;2.67;70.01
40276;BME280;25990;52.768;16.930;2024-01-30T08:17:23;103194.83;;;2.78;69.59
40276;BME280;25990;52.768;16.930;2024-01-30T08:19:46;103194.45;;;2.89;69.61
40276;BME280;25990;52.768;16.930;2024-01-30T08:22:08;103193.73;;;2.90;69.31
40276;BME280;25990;52.768;16.930;2024-01-30T08:24:30;103191.50;;;2.94;69.07
40276;BME280;25990;52.768;16.930;2024-01-30T08:26:53;103195.72;;;3.00;69.38
40276;BME280;25990;52.768;16.930;2024-01-30T08:29:15;103191.12;;;3.05;69.56
40276;BME280;25990;52.768;16.930;2024-01-30T08:31:37;103198.45;;;3.09;68.89
40276;BME280;25990;52.768;16.930;2024-01-30T08:34:00;103188.74;;;3.06;68.95
40276;BME280;25990;52.768;16.930;2024-01-30T08:36:22;103188.93;;;3.15;69.24
40276;BME280;25990;52.768;16.930;2024-01-30T08:38:44;103190.93;;;3.18;68.40
40276;BME280;25990;52.768;16.930;2024-01-30T08:41:07;103190.89;;;3.25;68.62
40276;BME280;25990;52.768;16.930;2024-01-30T08:43:29;103183.73;;;3.29;69.04
40276;BME280;25990;52.768;16.930;2024-01-30T08:45:51;103187.93;;;3.36;68.41
40276;BME280;25990;52.768;16.930;2024-01-30T08:48:14;103189.75;;;3.44;68.16
40276;BME280;25990;52.768;16.930;2024-01-30T08:50:36;103184.05;;;3.47;67.83
40276;BME280;25990;52.768;16.930;2024-01-30T08:52:58;103196.68;;;3.52;67.74
40276;BME280;25990;52.768;16.930;2024-01-30T08:55:21;103191.50;;;3.60;67.72
40276;BME280;25990;52.768;16.930;2024-01-30T08:57:43;103192.37;;;3.75;67.49
40276;BME280;25990;52.768;16.930;2024-01-30T09:00:06;103192.53;;;3.76;67.35
40276;BME280;25990;52.768;16.930;2024-01-30T09:02:28;103192.14;;;3.80;66.92
40276;BME280;25990;52.768;16.930;2024-01-30T09:04:50;103183.11;;;3.91;66.87
40276;BME280;25990;52.768;16.930;2024-01-30T09:07:12;103188.58;;;3.94;66.82
40276;BME280;25990;52.768;16.930;2024-01-30T09:09:35;103184.67;;;4.05;67.26
40276;BME280;25990;52.768;16.930;2024-01-30T09:11:57;103183.38;;;4.08;65.92
40276;BME280;25990;52.768;16.930;2024-01-30T09:14:19;103180.19;;;4.18;66.52
40276;BME280;25990;52.768;16.930;2024-01-30T09:16:42;103182.87;;;4.27;66.50
40276;BME280;25990;52.768;16.930;2024-01-30T09:19:04;103179.34;;;4.33;66.03
40276;BME280;25990;52.768;16.930;2024-01-30T09:21:26;103176.78;;;4.33;65.77
40276;BME280;25990;52.768;16.930;2024-01-30T09:23:49;103180.29;;;4.34;65.62
40276;BME280;25990;52.768;16.930;2024-01-30T09:26:11;103179.34;;;4.33;66.37
40276;BME280;25990;52.768;16.930;2024-01-30T09:28:34;103175.48;;;4.37;65.56
40276;BME280;25990;52.768;16.930;2024-01-30T09:30:55;103180.04;;;4.40;65.54
40276;BME280;25990;52.768;16.930;2024-01-30T09:33:18;103172.45;;;4.48;65.60
40276;BME280;25990;52.768;16.930;2024-01-30T09:35:40;103172.84;;;4.44;65.21
40276;BME280;25990;52.768;16.930;2024-01-30T09:38:03;103179.76;;;4.52;65.85
40276;BME280;25990;52.768;16.930;2024-01-30T09:40:25;103162.94;;;4.47;65.48
40276;BME280;25990;52.768;16.930;2024-01-30T09:42:47;103168.21;;;4.49;64.65
40276;BME280;25990;52.768;16.930;2024-01-30T09:45:13;103167.12;;;4.47;65.21
40276;BME280;25990;52.768;16.930;2024-01-30T09:47:40;103167.32;;;4.48;65.00
40276;BME280;25990;52.768;16.930;2024-01-30T09:49:55;103158.70;;;4.48;65.04
40276;BME280;25990;52.768;16.930;2024-01-30T09:52:16;103162.17;;;4.48;64.66
40276;BME280;25990;52.768;16.930;2024-01-30T09:54:40;103161.09;;;4.46;65.56
40276;BME280;25990;52.768;16.930;2024-01-30T09:57:01;103159.28;;;4.45;65.92
40276;BME280;25990;52.768;16.930;2024-01-30T09:59:24;103156.64;;;4.52;65.30
40276;BME280;25990;52.768;16.930;2024-01-30T10:01:46;103152.59;;;4.54;65.14
40276;BME280;25990;52.768;16.930;2024-01-30T10:04:08;103157.98;;;4.65;64.80
40276;BME280;25990;52.768;16.930;2024-01-30T10:06:30;103147.48;;;4.70;64.87
40276;BME280;25990;52.768;16.930;2024-01-30T10:08:53;103152.95;;;4.73;64.90
40276;BME280;25990;52.768;16.930;2024-01-30T10:11:15;103147.81;;;4.73;64.78
40276;BME280;25990;52.768;16.930;2024-01-30T10:13:38;103147.01;;;4.82;65.20
40276;BME280;25990;52.768;16.930;2024-01-30T10:16:00;103138.58;;;4.83;65.18
40276;BME280;25990;52.768;16.930;2024-01-30T10:18:22;103140.38;;;4.84;65.11
40276;BME280;25990;52.768;16.930;2024-01-30T10:20:45;103137.15;;;4.93;65.17
40276;BME280;25990;52.768;16.930;2024-01-30T10:23:07;103142.23;;;5.01;65.21
40276;BME280;25990;52.768;16.930;2024-01-30T10:25:30;103142.38;;;5.02;65.03
40276;BME280;25990;52.768;16.930;2024-01-30T10:27:55;103128.80;;;5.03;64.37
40276;BME280;25990;52.768;16.930;2024-01-30T10:30:14;103130.95;;;5.07;64.29
40276;BME280;25990;52.768;16.930;2024-01-30T10:32:36;103131.10;;;5.09;64.00
40276;BME280;25990;52.768;16.930;2024-01-30T10:34:58;103125.32;;;5.03;64.12
40276;BME280;25990;52.768;16.930;2024-01-30T10:37:21;103123.26;;;5.07;64.73
40276;BME280;25990;52.768;16.930;2024-01-30T10:39:44;103120.83;;;5.09;65.15
40276;BME280;25990;52.768;16.930;2024-01-30T10:42:06;103119.91;;;5.08;64.54
40276;BME280;25990;52.768;16.930;2024-01-30T10:44:30;103120.77;;;5.16;64.87
40276;BME280;25990;52.768;16.930;2024-01-30T10:46:56;103118.82;;;5.22;64.36
40276;BME280;25990;52.768;16.930;2024-01-30T10:49:14;103110.98;;;5.21;64.36
40276;BME280;25990;52.768;16.930;2024-01-30T10:51:37;103116.26;;;5.22;64.57
40276;BME280;25990;52.768;16.930;2024-01-30T10:53:57;103115.84;;;5.26;64.24
40276;BME280;25990;52.768;16.930;2024-01-30T10:56:23;103109.03;;;5.27;64.14
40276;BME280;25990;52.768;16.930;2024-01-30T10:58:49;103107.72;;;5.30;63.96
40276;BME280;25990;52.768;16.930;2024-01-30T11:01:10;103108.37;;;5.36;63.74
40276;BME280;25990;52.768;16.930;2024-01-30T11:03:33;103094.77;;;5.37;64.28
40276;BME280;25990;52.768;16.930;2024-01-30T11:05:59;103096.01;;;5.41;64.53
40276;BME280;25990;52.768;16.930;2024-01-30T11:08:25;103095.41;;;5.44;63.87
40276;BME280;25990;52.768;16.930;2024-01-30T11:10:48;103094.99;;;5.48;63.97
40276;BME280;25990;52.768;16.930;2024-01-30T11:13:10;103089.58;;;5.53;63.76
40276;BME280;25990;52.768;16.930;2024-01-30T11:15:24;103092.66;;;5.58;63.61
40276;BME280;25990;52.768;16.930;2024-01-30T11:17:52;103085.85;;;5.58;63.73
40276;BME280;25990;52.768;16.930;2024-01-30T11:20:15;103086.34;;;5.63;63.21
40276;BME280;25990;52.768;16.930;2024-01-30T11:22:31;103076.83;;;5.71;63.52
40276;BME280;25990;52.768;16.930;2024-01-30T11:24:55;103083.96;;;5.73;63.24
40276;BME280;25990;52.768;16.930;2024-01-30T11:27:16;103076.41;;;5.75;63.22
40276;BME280;25990;52.768;16.930;2024-01-30T11:29:40;103079.80;;;5.83;63.55
40276;BME280;25990;52.768;16.930;2024-01-30T11:32:00;103071.36;;;5.92;62.98
40276;BME280;25990;52.768;16.930;2024-01-30T11:34:23;103064.15;;;5.97;63.63
40276;BME280;25990;52.768;16.930;2024-01-30T11:36:57;103064.97;;;6.05;62.35
40276;BME280;25990;52.768;16.930;2024-01-30T11:39:08;103062.43;;;6.13;61.64
40276;BME280;25990;52.768;16.930;2024-01-30T11:41:30;103057.58;;;6.16;61.93
40276;BME280;25990;52.768;16.930;2024-01-30T11:43:55;103063.67;;;6.26;61.74
40276;BME280;25990;52.768;16.930;2024-01-30T11:46:14;103058.69;;;6.27;60.56
40276;BME280;25990;52.768;16.930;2024-01-30T11:48:36;103051.13;;;6.37;61.70
40276;BME280;25990;52.768;16.930;2024-01-30T11:50:59;103048.44;;;6.45;60.85
40276;BME280;25990;52.768;16.930;2024-01-30T11:53:21;103044.05;;;6.52;61.33
40276;BME280;25990;52.768;16.930;2024-01-30T11:55:51;103040.27;;;6.57;61.47
40276;BME280;25990;52.768;16.930;2024-01-30T11:58:06;103034.38;;;6.58;61.00
40276;BME280;25990;52.768;16.930;2024-01-30T12:00:28;103034.05;;;6.64;61.08
40276;BME280;25990;52.768;16.930;2024-01-30T12:02:52;103038.93;;;6.70;61.35
40276;BME280;25990;52.768;16.930;2024-01-30T12:05:13;103037.72;;;6.75;61.73
40276;BME280;25990;52.768;16.930;2024-01-30T12:07:35;103031.96;;;6.86;61.93
40276;BME280;25990;52.768;16.930;2024-01-30T12:09:57;103037.74;;;6.92;61.43
40276;BME280;25990;52.768;16.930;2024-01-30T12:12:22;103029.27;;;7.02;60.83
40276;BME280;25990;52.768;16.930;2024-01-30T12:14:42;103034.11;;;7.08;59.55
40276;BME280;25990;52.768;16.930;2024-01-30T12:17:04;103028.04;;;7.16;58.91
40276;BME280;25990;52.768;16.930;2024-01-30T12:19:26;103032.30;;;7.24;59.82
40276;BME280;25990;52.768;16.930;2024-01-30T12:21:54;103016.77;;;7.33;59.32
40276;BME280;25990;52.768;16.930;2024-01-30T12:24:11;103022.70;;;7.40;58.73